Time;durP1;ratioP1;P1;durP2;ratioP2;P2;SDS_P1;SDS_P2;PMS_P1;PMS_P2;Temp;Humidity;BMP_temperature;BMP_pressure;BME280_temperature;BME280_humidity;BME280_pressure;Samples;Min_cycle;Max_cycle;Signal;HPM_P1;HPM_P2
2023/08/16 00:01:00;;;;;;;2.75;2.40;;;;;;;24.17;65.74;99610.31;5061774;28;20032;-83
2023/08/16 00:03:26;;;;;;;6.38;3.38;;;;;;;24.22;66.05;99624.31;5070676;28;20081;-82
2023/08/16 00:05:52;;;;;;;3.35;2.00;;;;;;;24.28;65.99;99626.56;5060827;28;20029;-85
2023/08/16 00:08:18;;;;;;;3.28;2.58;;;;;;;24.21;66.11;99614.53;5067246;28;20111;-82
2023/08/16 00:10:43;;;;;;;5.47;3.60;;;;;;;24.04;66.30;99599.59;5062854;28;20527;-83
2023/08/16 00:13:08;;;;;;;5.93;3.13;;;;;;;24.09;66.21;99600.09;5051452;28;20040;-83
2023/08/16 00:15:34;;;;;;;4.93;2.50;;;;;;;24.08;66.79;99633.41;5051139;28;20025;-82
2023/08/16 00:17:59;;;;;;;4.28;2.97;;;;;;;24.03;66.92;99614.88;5052661;28;20021;-82
2023/08/16 00:20:27;;;;;;;4.75;2.88;;;;;;;23.94;67.00;99584.09;5051341;28;20039;-82
2023/08/16 00:22:53;;;;;;;5.55;3.40;;;;;;;24.15;67.24;99618.53;5051294;28;20028;-82
2023/08/16 00:25:18;;;;;;;5.10;3.25;;;;;;;24.16;67.41;99619.38;5050983;28;20510;-82
2023/08/16 00:27:44;;;;;;;4.18;3.40;;;;;;;24.02;67.43;99594.31;5051961;28;20029;-83
2023/08/16 00:30:10;;;;;;;5.60;2.30;;;;;;;24.07;67.79;99621.78;5071551;28;20474;-82
2023/08/16 00:32:37;;;;;;;4.97;1.98;;;;;;;24.06;68.29;99622.72;5071331;28;20028;-89
2023/08/16 00:35:02;;;;;;;4.85;3.10;;;;;;;24.02;68.24;99599.69;5071284;28;20032;-82
2023/08/16 00:37:28;;;;;;;6.53;3.60;;;;;;;23.97;68.19;99588.38;5071601;28;20032;-82
2023/08/16 00:39:53;;;;;;;3.65;2.30;;;;;;;24.09;68.22;99611.72;5069666;28;20024;-83
2023/08/16 00:42:18;;;;;;;10.65;3.08;;;;;;;24.07;67.93;99600.22;5069509;28;20035;-83
2023/08/16 00:44:44;;;;;;;7.97;4.57;;;;;;;24.07;67.96;99593.97;5070784;28;20035;-83
2023/08/16 00:47:09;;;;;;;6.88;3.20;;;;;;;24.07;67.95;99608.28;5056085;28;20036;-83
2023/08/16 00:49:37;;;;;;;3.05;2.20;;;;;;;23.76;68.01;99570.06;5051682;28;20113;-83
2023/08/16 00:52:04;;;;;;;3.42;2.78;;;;;;;24.02;67.50;99596.13;5050715;28;20066;-83
2023/08/16 00:54:30;;;;;;;4.90;3.05;;;;;;;24.09;67.84;99614.44;5050321;28;20055;-83
2023/08/16 00:56:56;;;;;;;5.57;2.58;;;;;;;24.08;67.27;99601.94;5032533;28;20041;-82
2023/08/16 00:59:23;;;;;;;6.32;2.63;;;;;;;24.16;67.39;99605.91;5050695;28;20029;-82
2023/08/16 01:01:49;;;;;;;4.38;2.95;;;;;;;24.13;67.82;99615.09;5051748;28;20036;-82
2023/08/16 01:04:14;;;;;;;4.35;3.10;;;;;;;24.15;67.72;99614.97;5050331;28;20025;-83
2023/08/16 01:06:40;;;;;;;6.40;2.85;;;;;;;24.04;67.89;99615.75;5051663;28;20047;-82
2023/08/16 01:09:06;;;;;;;5.55;3.13;;;;;;;24.04;67.79;99608.53;5050397;28;20045;-83
2023/08/16 01:11:45;;;;;;;3.10;2.15;;;;;;;24.18;67.75;99625.53;5051629;28;20029;-83
2023/08/16 01:14:23;;;;;;;5.93;3.05;;;;;;;24.08;67.40;99595.69;5050274;28;20043;-83
2023/08/16 01:16:51;;;;;;;7.45;4.07;;;;;;;24.02;67.58;99585.34;5050122;28;20056;-84
2023/08/16 01:19:27;;;;;;;4.40;3.78;;;;;;;24.17;67.49;99605.78;5050234;28;20525;-82
2023/08/16 01:22:04;;;;;;;5.30;2.90;;;;;;;24.12;67.31;99587.25;5051645;28;20052;-83
2023/08/16 01:24:42;;;;;;;4.20;2.00;;;;;;;24.20;67.28;99605.56;5033143;28;20033;-82
2023/08/16 01:27:08;;;;;;;2.83;2.17;;;;;;;24.26;66.83;99596.19;5050302;28;20042;-82
2023/08/16 01:29:34;;;;;;;6.72;3.17;;;;;;;24.37;66.68;99619.63;5051715;28;20032;-82
2023/08/16 01:32:00;;;;;;;5.30;3.00;;;;;;;24.37;66.54;99598.94;5051462;28;20185;-82
2023/08/16 01:34:25;;;;;;;7.40;4.40;;;;;;;24.39;66.50;99604.22;5050196;28;20542;-82
2023/08/16 01:36:51;;;;;;;4.28;2.88;;;;;;;24.40;66.30;99606.78;5050312;28;20375;-83
2023/08/16 01:39:16;;;;;;;6.93;4.45;;;;;;;24.54;66.49;99623.78;5049906;28;20025;-83
2023/08/16 01:41:45;;;;;;;3.72;2.95;;;;;;;24.60;65.88;99624.22;5049934;28;20035;-83
2023/08/16 01:44:12;;;;;;;5.95;4.50;;;;;;;24.49;65.92;99598.00;5051616;28;20124;-84
2023/08/16 01:46:39;;;;;;;5.90;3.58;;;;;;;24.51;65.82;99603.28;5050675;28;20051;-82
2023/08/16 01:49:07;;;;;;;4.78;3.25;;;;;;;24.61;65.82;99625.09;5050116;28;20025;-83
2023/08/16 01:51:32;;;;;;;4.03;2.78;;;;;;;24.41;65.84;99589.66;5050561;28;20035;-82
2023/08/16 01:53:58;;;;;;;4.32;2.63;;;;;;;24.55;65.72;99606.66;5058408;28;20025;-83
2023/08/16 01:56:24;;;;;;;7.53;3.67;;;;;;;24.55;65.79;99603.94;5069738;28;20032;-82
2023/08/16 01:58:50;;;;;;;10.25;4.60;;;;;;;24.75;65.44;99622.22;5058223;28;20502;-82
2023/08/16 02:01:15;;;;;;;5.55;3.13;;;;;;;24.44;66.09;99589.41;5049632;28;20498;-83
2023/08/16 02:03:42;;;;;;;10.70;4.75;;;;;;;24.31;66.29;99565.22;5050536;28;20491;-82
2023/08/16 02:06:07;;;;;;;2.92;2.63;;;;;;;24.57;66.05;99613.66;5050286;28;20556;-82
2023/08/16 02:08:34;;;;;;;5.15;3.10;;;;;;;24.47;66.03;99591.03;5050989;28;20025;-83
2023/08/16 02:11:00;;;;;;;4.72;3.75;;;;;;;24.58;66.37;99611.84;5049691;28;20075;-82
2023/08/16 02:13:25;;;;;;;4.80;2.63;;;;;;;24.56;66.19;99589.47;5049724;28;20056;-82
2023/08/16 02:15:59;;;;;;;4.93;2.97;;;;;;;24.63;66.40;99610.50;5050675;28;20056;-83
2023/08/16 02:18:24;;;;;;;3.05;2.33;;;;;;;24.69;66.72;99616.44;5049567;28;20112;-83
2023/08/16 02:20:51;;;;;;;5.03;2.70;;;;;;;24.63;67.09;99615.03;5050944;28;20132;-82
2023/08/16 02:23:17;;;;;;;5.05;3.38;;;;;;;24.56;67.47;99601.13;5049251;28;20371;-82
2023/08/16 02:25:43;;;;;;;12.77;3.20;;;;;;;24.58;67.34;99601.06;5050294;28;20025;-82
2023/08/16 02:28:09;;;;;;;5.88;3.33;;;;;;;24.67;67.09;99609.31;5049498;28;20043;-84
2023/08/16 02:30:34;;;;;;;6.80;4.53;;;;;;;24.46;66.77;99592.00;5050839;28;20029;-82
2023/08/16 02:33:00;;;;;;;7.82;4.68;;;;;;;24.44;66.39;99589.41;5049513;28;20029;-83
2023/08/16 02:35:25;;;;;;;6.80;4.13;;;;;;;24.41;66.10;99575.31;5049419;28;20111;-82
2023/08/16 02:37:51;;;;;;;4.43;3.63;;;;;;;24.69;65.66;99606.50;5049476;28;20051;-82
2023/08/16 02:40:17;;;;;;;3.42;2.92;;;;;;;24.54;66.01;99603.06;5050858;28;20191;-82
2023/08/16 02:42:42;;;;;;;5.82;3.80;;;;;;;24.48;65.72;99585.53;5050781;28;20116;-83
2023/08/16 02:45:08;;;;;;;5.38;2.80;;;;;;;24.22;65.75;99536.25;5059322;28;20037;-83
2023/08/16 02:47:34;;;;;;;6.47;3.53;;;;;;;24.53;65.67;99587.88;5049479;28;20031;-83
2023/08/16 02:49:59;;;;;;;4.15;2.00;;;;;;;24.57;66.09;99592.09;5051009;28;20425;-83
2023/08/16 02:52:24;;;;;;;6.60;5.20;;;;;;;24.45;66.26;99577.69;5053191;28;20033;-83
2023/08/16 02:54:50;;;;;;;7.43;3.53;;;;;;;24.41;66.45;99581.56;5054153;28;20175;-83
2023/08/16 02:57:18;;;;;;;5.65;3.72;;;;;;;24.43;66.43;99585.00;5052947;28;20033;-83
2023/08/16 02:59:47;;;;;;;5.75;2.88;;;;;;;24.32;66.36;99568.78;5066261;28;20050;-83
2023/08/16 03:02:13;;;;;;;5.93;3.65;;;;;;;24.38;66.03;99565.63;5053514;28;20411;-84
2023/08/16 03:04:39;;;;;;;5.50;3.72;;;;;;;24.59;66.13;99611.72;5053447;28;20075;-85
2023/08/16 03:07:07;;;;;;;5.88;3.60;;;;;;;24.50;66.29;99593.50;5052168;28;20744;-86
2023/08/16 03:09:33;;;;;;;6.63;4.30;;;;;;;24.51;65.94;99584.41;5053384;28;20037;-90
2023/08/16 03:11:58;;;;;;;4.68;3.15;;;;;;;24.40;66.03;99569.06;5052484;28;20037;-85
2023/08/16 03:14:25;;;;;;;7.60;3.47;;;;;;;24.41;66.67;99584.25;5066116;28;20051;-87
2023/08/16 03:16:52;;;;;;;5.55;4.03;;;;;;;24.49;66.67;99603.41;5071489;28;20177;-85
2023/08/16 03:19:17;;;;;;;9.20;3.05;;;;;;;24.45;66.92;99592.97;5070939;28;20107;-85
2023/08/16 03:21:42;;;;;;;5.13;4.03;;;;;;;24.45;67.16;99612.72;5051732;28;20517;-86
2023/08/16 03:24:08;;;;;;;5.55;3.67;;;;;;;24.25;67.31;99579.16;5052529;28;20106;-85
2023/08/16 03:26:33;;;;;;;7.43;3.95;;;;;;;24.35;67.57;99598.19;5051664;28;20033;-84
2023/08/16 03:28:59;;;;;;;10.02;4.78;;;;;;;24.27;67.17;99589.81;5051986;28;20116;-86
2023/08/16 03:31:24;;;;;;;6.82;4.15;;;;;;;24.41;66.88;99605.81;5032685;28;20491;-87
2023/08/16 03:33:50;;;;;;;5.15;3.85;;;;;;;24.28;67.60;99599.59;5052475;28;20505;-85
2023/08/16 03:36:15;;;;;;;5.07;3.65;;;;;;;24.06;67.79;99576.09;5051167;28;20441;-85
2023/08/16 03:38:41;;;;;;;6.18;4.45;;;;;;;24.25;67.66;99589.94;5051224;28;20487;-85
2023/08/16 03:41:07;;;;;;;11.98;4.57;;;;;;;24.27;67.30;99589.81;5051043;28;20021;-84
2023/08/16 03:43:36;;;;;;;7.43;4.78;;;;;;;24.23;66.99;99582.94;5051601;28;20103;-84
2023/08/16 03:46:02;;;;;;;8.30;4.22;;;;;;;24.23;67.78;99596.41;5033354;28;20029;-84
2023/08/16 03:48:28;;;;;;;8.85;6.05;;;;;;;24.17;67.90;99588.78;5051068;28;20064;-84
2023/08/16 03:50:54;;;;;;;15.27;5.63;;;;;;;24.02;68.78;99598.81;5052079;28;20056;-85
2023/08/16 03:53:19;;;;;;;6.60;3.85;;;;;;;23.80;69.36;99594.09;5052956;28;20508;-85
2023/08/16 03:55:45;;;;;;;7.22;3.58;;;;;;;23.78;69.45;99589.66;5068171;28;20036;-85
2023/08/16 03:58:10;;;;;;;5.80;4.05;;;;;;;23.92;69.17;99598.63;5057738;28;20025;-85
2023/08/16 04:00:36;;;;;;;9.32;7.05;;;;;;;23.85;69.22;99573.97;5051718;28;20041;-86
2023/08/16 04:03:04;;;;;;;8.55;5.50;;;;;;;24.15;68.98;99617.66;5051979;28;20033;-85
2023/08/16 04:05:30;;;;;;;8.77;4.78;;;;;;;23.95;69.32;99593.88;5051777;28;20095;-87
2023/08/16 04:07:55;;;;;;;6.07;4.13;;;;;;;23.98;69.50;99582.03;5052494;28;20112;-86
2023/08/16 04:10:20;;;;;;;7.60;5.22;;;;;;;23.70;70.40;99581.28;5063363;28;20046;-88
2023/08/16 04:12:46;;;;;;;5.35;3.97;;;;;;;23.78;70.18;99575.34;5056417;28;20045;-88
2023/08/16 04:15:12;;;;;;;6.53;3.95;;;;;;;23.87;70.28;99573.88;5052729;28;20163;-87
2023/08/16 04:17:37;;;;;;;5.13;3.58;;;;;;;23.98;70.70;99614.34;5051965;28;20076;-87
2023/08/16 04:20:07;;;;;;;6.18;4.68;;;;;;;24.03;70.29;99601.41;5052330;28;20025;-87
2023/08/16 04:22:34;;;;;;;4.93;3.20;;;;;;;24.01;70.08;99579.09;5052181;28;20491;-87
2023/08/16 04:24:59;;;;;;;6.35;3.40;;;;;;;24.22;69.64;99609.03;5052233;28;20033;-88
2023/08/16 04:27:25;;;;;;;5.65;3.67;;;;;;;24.22;68.97;99605.44;5040229;28;20119;-89
2023/08/16 04:29:50;;;;;;;5.28;4.45;;;;;;;24.25;68.79;99592.63;5071435;28;20542;-89
2023/08/16 04:32:16;;;;;;;4.72;4.05;;;;;;;24.41;68.60;99621.16;5071819;28;20398;-88
2023/08/16 04:34:41;;;;;;;5.28;3.65;;;;;;;24.49;68.13;99613.34;5071802;28;20033;-87
2023/08/16 04:37:07;;;;;;;9.48;4.18;;;;;;;24.54;67.85;99608.47;5071892;28;20060;-88
2023/08/16 04:39:32;;;;;;;8.50;3.95;;;;;;;24.41;67.53;99581.56;5071602;28;20474;-88
2023/08/16 04:41:58;;;;;;;6.30;4.03;;;;;;;24.64;67.98;99620.31;5071554;28;20496;-88
2023/08/16 04:44:23;;;;;;;5.28;3.55;;;;;;;24.85;68.03;99638.56;5071766;28;20020;-87
2023/08/16 04:46:49;;;;;;;11.43;4.47;;;;;;;24.65;68.08;99594.22;5071209;28;20029;-87
2023/08/16 04:49:15;;;;;;;4.95;3.45;;;;;;;24.81;67.84;99608.25;5071403;28;20033;-86
2023/08/16 04:51:40;;;;;;;5.70;5.18;;;;;;;24.78;68.27;99611.19;5071517;28;20538;-87
2023/08/16 04:54:07;;;;;;;6.00;2.83;;;;;;;24.73;67.87;99596.31;5071214;28;20036;-87
2023/08/16 04:56:33;;;;;;;6.13;3.35;;;;;;;24.98;67.73;99631.25;5065784;28;20032;-87
2023/08/16 04:58:58;;;;;;;8.38;4.00;;;;;;;25.12;67.76;99657.19;5071189;28;20423;-88
2023/08/16 05:01:24;;;;;;;8.20;2.78;;;;;;;25.13;67.75;99631.06;5071645;28;20115;-87
2023/08/16 05:03:52;;;;;;;7.03;4.03;;;;;;;25.19;66.55;99617.97;5070272;28;20073;-89
2023/08/16 05:06:18;;;;;;;6.65;4.07;;;;;;;25.28;66.88;99643.38;5071546;28;20429;-88
2023/08/16 05:08:44;;;;;;;5.70;3.72;;;;;;;25.27;67.29;99654.28;5069850;28;20042;-89
2023/08/16 05:11:09;;;;;;;5.63;3.92;;;;;;;25.31;67.04;99645.00;5058449;28;20043;-89
2023/08/16 05:13:35;;;;;;;9.55;4.07;;;;;;;25.31;66.88;99640.47;5069057;28;20063;-89
2023/08/16 05:16:00;;;;;;;7.45;4.97;;;;;;;25.20;66.76;99637.72;5062062;28;20069;-89
2023/08/16 05:18:26;;;;;;;5.28;3.60;;;;;;;25.17;66.72;99622.59;5050315;28;20025;-88
2023/08/16 05:20:54;;;;;;;5.45;3.55;;;;;;;25.40;66.84;99649.69;5050590;28;20029;-87
2023/08/16 05:23:20;;;;;;;4.63;3.55;;;;;;;25.48;66.66;99652.66;5050500;28;20128;-90
2023/08/16 05:25:45;;;;;;;5.75;3.40;;;;;;;25.24;66.47;99603.25;5050727;28;20025;-87
2023/08/16 05:28:11;;;;;;;6.88;4.28;;;;;;;25.31;66.87;99613.47;5050947;28;20037;-88
2023/08/16 05:30:36;;;;;;;4.70;3.13;;;;;;;25.49;66.79;99645.44;5050645;28;20033;-87
2023/08/16 05:33:02;;;;;;;7.57;3.90;;;;;;;25.53;66.81;99644.19;5050711;28;20032;-87
2023/08/16 05:35:32;;;;;;;5.30;4.10;;;;;;;25.17;66.69;99595.63;5050702;28;20040;-87
2023/08/16 05:37:57;;;;;;;12.30;3.35;;;;;;;25.38;66.51;99625.53;5050973;28;20033;-88
2023/08/16 05:40:23;;;;;;;7.75;3.95;;;;;;;25.42;66.45;99623.44;5050641;28;20047;-90
2023/08/16 05:42:49;;;;;;;6.55;3.83;;;;;;;25.54;65.55;99625.16;5064283;28;20067;-85
2023/08/16 05:45:15;;;;;;;10.55;3.28;;;;;;;25.35;65.30;99604.16;5052419;28;20449;-87
2023/08/16 05:47:40;;;;;;;8.30;4.65;;;;;;;25.59;65.88;99627.50;5068138;28;20032;-87
2023/08/16 05:50:06;;;;;;;8.00;2.65;;;;;;;25.74;65.42;99637.09;5072092;28;20414;-87
2023/08/16 05:52:31;;;;;;;6.53;3.78;;;;;;;25.91;64.53;99649.28;5069664;28;20058;-87
2023/08/16 05:54:57;;;;;;;4.47;3.10;;;;;;;25.86;64.31;99627.16;5069602;28;20101;-86
2023/08/16 05:57:22;;;;;;;7.75;3.83;;;;;;;25.88;65.20;99638.72;5078886;28;20055;-86
2023/08/16 05:59:48;;;;;;;5.85;2.90;;;;;;;25.68;64.83;99620.53;5046807;28;20029;-88
2023/08/16 06:02:13;;;;;;;8.43;3.88;;;;;;;25.80;64.34;99627.66;5069361;28;20025;-89
2023/08/16 06:04:39;;;;;;;8.02;3.83;;;;;;;26.09;63.89;99656.94;5059628;28;20036;-87
2023/08/16 06:07:05;;;;;;;3.65;2.72;;;;;;;26.16;63.98;99641.94;5082499;28;20024;-87
2023/08/16 06:09:31;;;;;;;4.63;3.33;;;;;;;26.26;64.08;99651.00;5068345;28;20510;-86
2023/08/16 06:11:57;;;;;;;5.07;3.65;;;;;;;26.34;63.35;99649.53;5073837;28;20028;-91
2023/08/16 06:14:23;;;;;;;6.15;3.50;;;;;;;26.25;63.26;99611.44;5070169;28;20032;-85
2023/08/16 06:16:48;;;;;;;5.57;3.13;;;;;;;26.60;62.76;99637.44;5065282;28;20037;-86
2023/08/16 06:19:15;;;;;;;4.20;3.53;;;;;;;26.79;63.71;99646.75;5070674;28;20466;-86
2023/08/16 06:21:41;;;;;;;6.35;3.55;;;;;;;26.81;62.99;99663.72;5090158;28;20028;-87
2023/08/16 06:24:08;;;;;;;5.85;3.88;;;;;;;26.90;62.79;99635.88;5072528;28;20032;-85
2023/08/16 06:26:34;;;;;;;7.43;4.53;;;;;;;26.82;63.14;99622.13;5061482;28;20040;-85
2023/08/16 06:29:00;;;;;;;7.63;3.60;;;;;;;26.48;62.61;99583.47;5073023;28;20111;-86
2023/08/16 06:31:26;;;;;;;5.00;3.75;;;;;;;26.64;63.36;99621.78;5077348;28;20116;-85
2023/08/16 06:33:51;;;;;;;6.90;3.72;;;;;;;27.02;63.56;99646.63;5081461;28;20036;-87
2023/08/16 06:36:17;;;;;;;10.50;4.55;;;;;;;26.96;62.45;99583.09;5074852;28;20491;-86
2023/08/16 06:38:43;;;;;;;6.53;4.13;;;;;;;27.46;62.02;99639.31;5073357;28;20474;-86
2023/08/16 06:41:09;;;;;;;4.60;2.90;;;;;;;27.36;61.28;99622.13;5072854;28;20052;-87
2023/08/16 06:43:35;;;;;;;4.18;3.30;;;;;;;27.75;59.76;99634.06;5072517;28;20062;-86
2023/08/16 06:46:00;;;;;;;5.15;3.47;;;;;;;27.79;60.99;99643.66;5080875;28;20046;-87
2023/08/16 06:48:26;;;;;;;5.20;3.60;;;;;;;27.86;60.49;99624.97;5075846;28;20062;-87
2023/08/16 06:50:52;;;;;;;10.05;4.50;;;;;;;28.18;60.04;99618.59;5053455;28;20082;-89
2023/08/16 06:53:18;;;;;;;6.45;4.03;;;;;;;28.30;59.41;99630.16;5053957;28;20044;-86
2023/08/16 06:55:43;;;;;;;6.80;3.67;;;;;;;28.40;58.82;99640.03;5064819;28;20032;-87
2023/08/16 06:58:36;;;;;;;5.53;2.88;;;;;;;28.60;58.60;99645.53;5055780;28;20060;-87
2023/08/16 07:01:01;;;;;;;3.65;2.55;;;;;;;27.95;58.29;99610.66;5073135;28;20414;-87
2023/08/16 07:03:27;;;;;;;6.78;3.20;;;;;;;28.29;59.12;99623.03;5086487;28;20040;-87
2023/08/16 07:05:52;;;;;;;7.03;3.95;;;;;;;28.36;57.12;99624.19;5084458;28;20035;-86
2023/08/16 07:08:18;;;;;;;4.07;2.45;;;;;;;28.41;57.07;99602.94;5080081;28;20091;-86
2023/08/16 07:10:44;;;;;;;6.07;2.55;;;;;;;28.63;57.13;99628.97;5093694;28;20448;-84
2023/08/16 07:13:09;;;;;;;5.07;3.08;;;;;;;28.45;56.67;99617.06;5093540;28;20035;-85
2023/08/16 07:15:34;;;;;;;4.72;2.45;;;;;;;28.78;57.05;99594.16;5081106;28;20024;-87
2023/08/16 07:18:00;;;;;;;5.07;3.25;;;;;;;28.69;56.38;99598.56;5078960;28;20312;-87
2023/08/16 07:20:33;;;;;;;4.57;2.78;;;;;;;28.88;54.81;99622.13;5093461;28;20127;-89
2023/08/16 07:22:59;;;;;;;6.22;2.60;;;;;;;29.00;56.08;99622.84;5092186;28;20438;-87
2023/08/16 07:25:27;;;;;;;6.88;3.08;;;;;;;28.93;55.26;99609.00;5092019;28;20024;-90
2023/08/16 07:27:52;;;;;;;7.05;3.22;;;;;;;28.88;54.44;99603.13;5080993;28;20024;-90
2023/08/16 07:30:18;;;;;;;5.68;3.10;;;;;;;29.06;53.57;99611.44;5091599;28;20027;-85
2023/08/16 07:32:43;;;;;;;9.00;3.15;;;;;;;29.01;55.89;99621.00;5062060;28;20052;-88
2023/08/16 07:35:09;;;;;;;11.55;3.05;;;;;;;29.32;54.54;99629.00;5091795;28;20028;-86
2023/08/16 07:37:36;;;;;;;6.18;3.53;;;;;;;29.42;53.87;99613.53;5091593;28;20574;-87
2023/08/16 07:40:03;;;;;;;4.57;3.22;;;;;;;29.16;53.27;99629.56;5090566;28;20028;-87
2023/08/16 07:42:28;;;;;;;4.85;2.90;;;;;;;29.36;54.00;99611.41;5089829;28;20028;-86
2023/08/16 07:44:54;;;;;;;5.85;2.88;;;;;;;29.39;53.05;99614.69;5090449;28;20115;-86
2023/08/16 07:47:19;;;;;;;3.88;2.70;;;;;;;29.39;53.97;99601.09;5081139;28;20051;-86
2023/08/16 07:49:45;;;;;;;4.00;3.22;;;;;;;29.60;52.69;99624.53;5062740;28;20055;-85
2023/08/16 07:52:10;;;;;;;3.72;2.85;;;;;;;29.62;52.23;99614.34;5091798;28;20035;-86
2023/08/16 07:54:36;;;;;;;5.70;3.42;;;;;;;29.73;51.41;99625.03;5091196;28;20020;-86
2023/08/16 07:57:01;;;;;;;4.18;2.78;;;;;;;29.80;51.00;99618.03;5090703;28;20024;-86
2023/08/16 07:59:26;;;;;;;6.25;3.13;;;;;;;29.52;52.17;99613.50;5091625;28;20109;-86
2023/08/16 08:01:53;;;;;;;5.40;2.28;;;;;;;29.61;52.03;99626.22;5091491;28;20585;-86
2023/08/16 08:04:19;;;;;;;3.42;2.15;;;;;;;29.48;52.82;99633.84;5091357;28;20024;-86
2023/08/16 08:06:45;;;;;;;4.57;3.00;;;;;;;29.34;52.88;99614.28;5072994;28;20040;-85
2023/08/16 08:09:10;;;;;;;6.78;3.05;;;;;;;29.68;52.70;99629.22;5090710;28;20025;-87
2023/08/16 08:11:37;;;;;;;3.03;1.88;;;;;;;29.80;52.15;99634.34;5091332;28;20486;-85
2023/08/16 08:14:03;;;;;;;6.88;2.55;;;;;;;29.75;51.50;99608.56;5091199;28;20028;-85
2023/08/16 08:16:28;;;;;;;4.63;3.55;;;;;;;30.00;50.75;99626.13;5091537;28;20139;-87
2023/08/16 08:18:54;;;;;;;3.95;2.58;;;;;;;29.95;50.85;99634.72;5081940;28;20024;-87
2023/08/16 08:21:19;;;;;;;6.25;2.72;;;;;;;30.17;50.42;99632.63;5071752;28;20031;-87
2023/08/16 08:23:45;;;;;;;4.32;2.67;;;;;;;30.24;49.88;99611.97;5071196;28;20037;-88
2023/08/16 08:26:10;;;;;;;5.97;3.33;;;;;;;30.22;51.03;99630.31;5071020;28;20076;-85
2023/08/16 08:28:36;;;;;;;8.48;2.70;;;;;;;30.62;49.43;99639.97;5071526;28;20035;-85
2023/08/16 08:31:02;;;;;;;5.32;3.33;;;;;;;30.59;49.55;99637.56;5053195;28;20449;-83
2023/08/16 08:33:29;;;;;;;6.70;3.35;;;;;;;30.81;48.44;99614.47;5070896;28;20036;-85
2023/08/16 08:35:55;;;;;;;16.15;10.05;;;;;;;31.05;47.97;99645.72;5070697;28;20108;-84
2023/08/16 08:38:22;;;;;;;11.38;7.13;;;;;;;30.72;50.23;99604.50;5070362;28;20032;-84
2023/08/16 08:41:03;;;;;;;367.35;271.92;;;;;;;31.28;49.51;99609.78;5070300;28;20731;-83
2023/08/16 08:43:40;;;;;;;502.92;350.50;;;;;;;31.64;48.39;99624.22;5071104;28;20115;-82
2023/08/16 08:46:06;;;;;;;1692.75;934.40;;;;;;;31.89;47.34;99630.66;5061548;28;20041;-84
2023/08/16 08:48:33;;;;;;;230.80;169.10;;;;;;;31.86;45.37;99617.34;5049342;28;20025;-84
2023/08/16 08:51:00;;;;;;;978.08;766.00;;;;;;;32.16;47.40;99634.19;5049807;28;20055;-86
2023/08/16 08:53:26;;;;;;;208.68;135.75;;;;;;;32.33;43.94;99620.63;5050615;28;20036;-83
2023/08/16 08:55:56;;;;;;;566.78;384.15;;;;;;;32.16;44.53;99604.19;5049970;28;20036;-85
2023/08/16 08:58:24;;;;;;;535.47;466.60;;;;;;;32.01;46.54;99584.00;5031671;28;20094;-86
2023/08/16 09:00:51;;;;;;;53.65;39.83;;;;;;;32.15;42.75;99583.41;5076838;28;20062;-84
2023/08/16 09:03:18;;;;;;;97.25;88.65;;;;;;;32.41;42.95;99615.19;5089485;28;20036;-85
2023/08/16 09:05:45;;;;;;;10.38;7.63;;;;;;;32.32;43.25;99627.97;5088994;28;20031;-87
2023/08/16 09:08:13;;;;;;;280.83;117.78;;;;;;;32.26;44.34;99607.66;5090238;28;20032;-89
2023/08/16 09:10:39;;;;;;;507.67;301.23;;;;;;;32.16;42.72;99614.25;5088045;28;20024;-86
2023/08/16 09:13:06;;;;;;;1290.78;887.80;;;;;;;32.57;44.36;99608.94;5077987;28;20481;-88
2023/08/16 09:15:32;;;;;;;292.35;246.80;;;;;;;32.62;41.76;99588.28;5071155;28;20036;-87
2023/08/16 09:18:12;;;;;;;76.70;52.17;;;;;;;32.79;41.72;99599.25;5089647;28;20021;-89
2023/08/16 09:20:38;;;;;;;7.53;5.75;;;;;;;32.68;41.73;99581.34;5076971;28;20032;-90
2023/08/16 09:23:04;;;;;;;6.85;2.67;;;;;;;32.82;40.13;99618.88;5090381;28;20114;-89
2023/08/16 09:25:41;;;;;;;3.75;2.63;;;;;;;32.61;40.26;99592.06;5077475;28;20553;-87
2023/08/16 09:28:11;;;;;;;4.90;3.08;;;;;;;32.30;41.08;99605.44;5077571;28;20055;-84
2023/08/16 09:30:37;;;;;;;3.67;2.15;;;;;;;32.23;40.53;99605.25;5069627;28;20037;-85
2023/08/16 09:33:02;;;;;;;7.75;3.03;;;;;;;32.11;41.79;99607.41;5082202;28;20035;-85
2023/08/16 09:35:58;;;;;;;2.40;1.88;;;;;;;32.46;40.73;99610.09;5069523;28;20036;-83
2023/08/16 09:38:23;;;;;;;2.88;1.88;;;;;;;32.50;40.46;99586.91;5007207;28;20075;-83
2023/08/16 09:40:52;;;;;;;4.13;2.78;;;;;;;32.83;39.68;99598.75;5006529;28;20559;-86
2023/08/16 09:43:19;;;;;;;4.50;2.78;;;;;;;33.01;40.52;99590.41;4990785;28;20042;-85
2023/08/16 09:45:48;;;;;;;5.05;2.03;;;;;;;33.17;39.54;99602.34;5006990;28;20113;-86
2023/08/16 09:48:14;;;;;;;2.40;1.90;;;;;;;33.07;39.81;99591.59;5007049;28;20065;-88
2023/08/16 09:50:39;;;;;;;3.90;2.75;;;;;;;32.91;40.35;99602.53;5007515;28;20499;-88
2023/08/16 09:53:05;;;;;;;3.80;2.55;;;;;;;32.44;42.28;99579.38;5007462;28;20030;-88
2023/08/16 09:55:35;;;;;;;4.53;3.53;;;;;;;32.66;40.13;99589.69;5007505;28;20041;-87
2023/08/16 09:58:02;;;;;;;6.85;3.35;;;;;;;33.04;41.83;99582.88;5007035;28;20189;-88
2023/08/16 10:00:28;;;;;;;3.78;2.63;;;;;;;33.25;39.95;99585.97;5009419;28;20539;-87
2023/08/16 10:02:56;;;;;;;14.02;3.13;;;;;;;33.38;39.09;99571.78;5011450;28;20049;-86
2023/08/16 10:05:21;;;;;;;3.70;2.42;;;;;;;33.15;40.00;99607.13;5011099;28;20169;-86
2023/08/16 10:07:48;;;;;;;4.15;2.85;;;;;;;32.94;40.21;99585.81;4993974;28;20540;-84
2023/08/16 10:10:14;;;;;;;2.75;1.40;;;;;;;32.65;40.16;99598.91;5010135;28;20036;-85
2023/08/16 10:12:41;;;;;;;3.97;2.33;;;;;;;33.00;39.88;99607.81;5010817;28;20061;-85
2023/08/16 10:15:08;;;;;;;6.80;2.75;;;;;;;33.18;38.59;99601.31;5050599;28;20101;-85
2023/08/16 10:17:40;;;;;;;5.35;2.38;;;;;;;32.87;39.41;99598.41;5073468;28;20060;-85
2023/08/16 10:20:09;;;;;;;5.55;3.10;;;;;;;32.97;39.22;99612.78;5072245;28;20040;-84
2023/08/16 10:22:38;;;;;;;5.60;2.92;;;;;;;32.21;39.89;99563.66;5072534;28;20032;-85
2023/08/16 10:25:16;;;;;;;2.85;2.28;;;;;;;32.63;40.04;99608.28;5072289;28;20029;-86
2023/08/16 10:27:44;;;;;;;3.28;2.33;;;;;;;33.10;39.82;99601.31;5087440;28;20024;-84
2023/08/16 10:30:18;;;;;;;10.25;4.55;;;;;;;33.47;38.43;99616.34;5092377;28;20524;-84
2023/08/16 10:32:46;;;;;;;4.95;3.08;;;;;;;33.29;38.55;99592.81;5074084;28;20097;-85
2023/08/16 10:35:13;;;;;;;3.65;2.28;;;;;;;32.87;39.78;99565.66;5071652;28;20047;-86
2023/08/16 10:37:39;;;;;;;12.27;3.53;;;;;;;33.09;39.61;99591.41;5088000;28;20143;-82
2023/08/16 10:40:18;;;;;;;4.20;2.28;;;;;;;33.12;40.13;99561.88;5074502;28;20116;-84
2023/08/16 10:43:10;;;;;;;4.35;2.40;;;;;;;33.26;38.05;99592.28;5062994;28;20490;-86
2023/08/16 10:45:35;;;;;;;1.92;1.65;;;;;;;32.67;38.90;99530.47;5079778;28;20040;-86
2023/08/16 10:48:10;;;;;;;3.45;2.20;;;;;;;33.19;38.78;99594.88;5071815;28;20319;-87
2023/08/16 10:50:37;;;;;;;3.22;1.98;;;;;;;32.98;39.03;99568.91;5071752;28;20032;-84
2023/08/16 10:53:04;;;;;;;4.57;2.55;;;;;;;32.86;40.58;99583.91;5083108;28;20118;-85
2023/08/16 10:55:29;;;;;;;3.47;2.03;;;;;;;32.90;41.25;99574.34;5085928;28;20504;-85
2023/08/16 10:57:55;;;;;;;4.97;2.28;;;;;;;32.72;39.70;99573.66;5071422;28;20059;-85
2023/08/16 11:00:34;;;;;;;4.35;2.67;;;;;;;32.21;43.57;99550.00;5053004;28;20036;-85
2023/08/16 11:03:04;;;;;;;3.33;1.88;;;;;;;32.01;42.86;99546.69;5071398;28;20032;-86
2023/08/16 11:05:33;;;;;;;10.20;3.10;;;;;;;32.36;42.23;99522.06;5071319;28;20042;-87
2023/08/16 11:08:03;;;;;;;3.88;2.20;;;;;;;32.74;40.90;99541.59;5070594;28;20032;-86
2023/08/16 11:10:37;;;;;;;4.65;3.03;;;;;;;32.56;40.44;99545.28;5070799;28;20119;-89
2023/08/16 11:13:08;;;;;;;4.55;2.83;;;;;;;32.99;40.76;99581.50;5046567;28;20469;-86
2023/08/16 11:15:33;;;;;;;4.10;2.78;;;;;;;32.94;40.25;99553.88;5070689;28;20028;-85
2023/08/16 11:17:59;;;;;;;3.20;2.42;;;;;;;32.95;41.73;99541.06;5071525;28;20027;-86
2023/08/16 11:20:25;;;;;;;3.35;2.60;;;;;;;33.25;40.98;99561.38;5071262;28;20081;-85
2023/08/16 11:22:52;;;;;;;6.88;2.40;;;;;;;33.08;40.73;99551.47;5052461;28;20039;-85
2023/08/16 11:25:17;;;;;;;3.30;2.35;;;;;;;33.25;40.05;99541.41;5070684;28;20593;-86
2023/08/16 11:27:43;;;;;;;7.47;2.97;;;;;;;33.64;40.38;99526.94;5078930;28;20083;-87
2023/08/16 11:30:09;;;;;;;4.97;2.47;;;;;;;33.12;39.98;99529.09;5076540;28;20025;-86